Time;durP1;ratioP1;P1;durP2;ratioP2;P2;SDS_P1;SDS_P2;PMS_P1;PMS_P2;Temp;Humidity;BMP_temperature;BMP_pressure;BME280_temperature;BME280_humidity;BME280_pressure;Samples;Min_cycle;Max_cycle;Signal;HPM_P1;HPM_P2
2024/01/30 00:00:11;;;;;;;75.88;67.60;;;12.50;17.00;;;;;;5065349;28;20086;-66
2024/01/30 00:02:37;;;;;;;83.28;74.88;;;12.00;3.50;;;;;;5065407;28;20520;-66
2024/01/30 00:05:03;;;;;;;72.13;64.15;;;12.20;1.00;;;;;;5065165;28;20040;-66
2024/01/30 00:07:29;;;;;;;88.72;79.85;;;11.30;10.40;;;;;;5064666;28;20047;-66
2024/01/30 00:09:54;;;;;;;77.50;68.32;;;12.10;26.00;;;;;;5063556;28;20029;-66
2024/01/30 00:12:20;;;;;;;76.88;65.80;;;12.00;99.90;;;;;;5065239;28;20040;-66
2024/01/30 00:14:46;;;;;;;88.75;79.43;;;11.40;99.90;;;;;;5065083;28;20127;-66
2024/01/30 00:17:12;;;;;;;72.18;62.03;;;12.00;99.90;;;;;;5065208;28;20123;-66
2024/01/30 00:19:37;;;;;;;79.07;65.63;;;11.90;99.90;;;;;;5064276;28;20044;-66
2024/01/30 00:22:03;;;;;;;92.85;83.47;;;12.10;99.90;;;;;;5064629;28;20090;-66
2024/01/30 00:24:28;;;;;;;93.60;83.90;;;12.90;99.90;;;;;;5064741;28;20062;-66
2024/01/30 00:26:54;;;;;;;95.53;85.57;;;12.90;99.90;;;;;;5047026;28;20436;-66
2024/01/30 00:29:20;;;;;;;78.95;66.45;;;13.00;99.90;;;;;;5064977;28;20063;-66
2024/01/30 00:31:46;;;;;;;88.97;79.63;;;12.10;99.90;;;;;;5049802;28;20048;-66
2024/01/30 00:34:11;;;;;;;70.07;60.10;;;12.10;99.90;;;;;;5065758;28;20465;-66
2024/01/30 00:36:37;;;;;;;74.70;65.07;;;12.60;99.90;;;;;;5062432;28;20517;-66
2024/01/30 00:39:06;;;;;;;90.78;81.78;;;11.70;99.90;;;;;;5038313;28;20476;-66
2024/01/30 00:41:32;;;;;;;73.20;62.60;;;12.10;1.00;;;;;;5065066;28;20119;-66
2024/01/30 00:43:57;;;;;;;91.00;81.75;;;12.20;1.00;;;;;;5064940;28;20166;-66
2024/01/30 00:46:23;;;;;;;91.45;81.95;;;12.80;1.00;;;;;;5045718;28;20040;-66
2024/01/30 00:48:48;;;;;;;91.03;81.47;;;12.10;1.00;;;;;;5063911;28;20492;-66
2024/01/30 00:51:14;;;;;;;91.88;82.25;;;12.70;99.90;;;;;;5064570;28;20036;-66
2024/01/30 00:53:41;;;;;;;80.53;67.57;;;12.80;1.00;;;;;;5064322;28;20036;-66
2024/01/30 00:56:07;;;;;;;70.10;60.65;;;12.80;1.00;;;;;;5063242;28;20042;-66
2024/01/30 00:58:33;;;;;;;91.53;81.63;;;12.80;1.00;;;;;;5064595;28;20107;-66
2024/01/30 01:00:59;;;;;;;77.15;67.55;;;12.90;1.00;;;;;;5063788;28;20040;-66
2024/01/30 01:03:24;;;;;;;89.68;80.93;;;13.70;1.00;;;;;;5064437;28;20036;-66
2024/01/30 01:05:50;;;;;;;88.60;79.47;;;12.60;1.00;;;;;;5046513;28;20398;-66
2024/01/30 01:08:15;;;;;;;69.28;61.78;;;12.00;1.00;;;;;;5064550;28;20072;-66
2024/01/30 01:10:41;;;;;;;89.55;80.20;;;12.60;1.00;;;;;;5065583;28;20051;-66
2024/01/30 01:13:06;;;;;;;87.78;78.65;;;12.20;1.00;;;;;;5064876;28;20264;-67
2024/01/30 01:15:32;;;;;;;71.90;62.17;;;13.10;85.40;;;;;;5064185;28;20037;-66
2024/01/30 01:17:58;;;;;;;89.47;80.22;;;13.40;99.90;;;;;;5064540;28;20508;-66
2024/01/30 01:20:23;;;;;;;85.32;76.53;;;13.40;99.90;;;;;;5064696;28;20176;-66
2024/01/30 01:22:49;;;;;;;86.97;77.97;;;12.30;96.60;;;;;;5067088;28;20040;-66
2024/01/30 01:25:15;;;;;;;72.47;63.97;;;12.50;99.90;;;;;;5068433;28;20159;-66
2024/01/30 01:27:42;;;;;;;90.25;81.10;;;13.20;66.40;;;;;;5067040;28;20519;-66
2024/01/30 01:30:11;;;;;;;90.68;81.28;;;12.40;99.90;;;;;;5067990;28;20076;-65
2024/01/30 01:32:38;;;;;;;74.80;63.03;;;13.00;99.90;;;;;;5066604;28;20086;-65
2024/01/30 01:35:05;;;;;;;89.03;80.13;;;12.80;99.90;;;;;;5068036;28;20091;-65
2024/01/30 01:37:31;;;;;;;87.07;78.20;;;13.40;99.90;;;;;;5062717;28;20060;-65
2024/01/30 01:39:56;;;;;;;71.28;61.88;;;13.10;99.90;;;;;;5048477;28;20048;-65
2024/01/30 01:42:22;;;;;;;94.28;84.72;;;13.20;99.90;;;;;;5048772;28;20166;-65
2024/01/30 01:44:48;;;;;;;88.45;79.50;;;13.40;99.90;;;;;;5057121;28;20405;-65
2024/01/30 01:47:14;;;;;;;77.97;68.47;;;13.80;99.90;;;;;;5068152;28;20036;-66
2024/01/30 01:49:41;;;;;;;92.90;83.80;;;13.50;99.90;;;;;;5068275;28;20048;-65
2024/01/30 01:52:06;;;;;;;88.40;79.07;;;13.00;99.90;;;;;;5067166;28;20056;-65
2024/01/30 01:54:33;;;;;;;91.75;82.80;;;12.90;99.90;;;;;;5067869;28;20099;-65
2024/01/30 01:56:59;;;;;;;91.38;82.32;;;13.00;99.90;;;;;;5067642;28;20059;-65
2024/01/30 01:59:25;;;;;;;66.15;57.17;;;12.90;99.90;;;;;;5067383;28;20044;-65
2024/01/30 02:01:53;;;;;;;75.93;66.00;;;14.60;99.90;;;;;;5067835;28;20132;-66
2024/01/30 02:04:18;;;;;;;88.18;79.15;;;13.80;99.90;;;;;;5049935;28;20111;-65
2024/01/30 02:06:44;;;;;;;86.32;77.32;;;14.00;99.90;;;;;;5067168;28;20075;-66
2024/01/30 02:09:10;;;;;;;86.13;77.00;;;13.10;99.90;;;;;;5037845;28;20467;-66
2024/01/30 02:11:35;;;;;;;71.40;62.30;;;14.10;99.90;;;;;;5047529;28;20041;-65
2024/01/30 02:14:04;;;;;;;82.43;73.95;;;13.90;99.90;;;;;;5045113;28;20048;-65
2024/01/30 02:16:31;;;;;;;70.68;58.67;;;13.90;99.90;;;;;;5066395;28;20130;-65
2024/01/30 02:18:56;;;;;;;82.85;74.07;;;14.10;99.90;;;;;;5083122;28;20532;-65
2024/01/30 02:21:22;;;;;;;83.93;75.30;;;13.30;99.90;;;;;;5067618;28;20073;-66
2024/01/30 02:23:49;;;;;;;70.10;60.25;;;14.10;99.90;;;;;;5067119;28;20142;-66
2024/01/30 02:26:14;;;;;;;83.40;74.60;;;14.00;99.90;;;;;;5049175;28;20136;-65
2024/01/30 02:28:40;;;;;;;67.32;58.28;;;13.40;99.90;;;;;;5067732;28;20167;-65
2024/01/30 02:31:06;;;;;;;72.05;63.08;;;14.20;99.90;;;;;;5066982;28;20036;-65
2024/01/30 02:33:32;;;;;;;78.07;64.10;;;13.10;99.90;;;;;;5081452;28;20041;-65
2024/01/30 02:35:57;;;;;;;82.00;73.47;;;13.30;99.90;;;;;;5067210;28;20044;-65
2024/01/30 02:38:23;;;;;;;83.53;74.82;;;14.10;99.90;;;;;;5050173;28;20056;-65
2024/01/30 02:40:49;;;;;;;84.72;76.25;;;13.00;99.90;;;;;;5047475;28;20186;-66
2024/01/30 02:43:16;;;;;;;84.35;76.25;;;14.00;99.90;;;;;;5066766;28;20107;-65
2024/01/30 02:45:42;;;;;;;85.18;76.70;;;14.00;99.90;;;;;;5066733;28;20040;-65
2024/01/30 02:48:08;;;;;;;86.72;77.97;;;14.00;99.90;;;;;;5067003;28;20062;-66
2024/01/30 02:50:33;;;;;;;85.80;77.50;;;14.10;99.90;;;;;;5064464;28;20601;-66
2024/01/30 02:52:59;;;;;;;70.35;62.97;;;14.00;99.90;;;;;;5066524;28;20512;-65
2024/01/30 02:55:25;;;;;;;81.40;73.28;;;13.00;99.90;;;;;;5067018;28;20040;-65
2024/01/30 02:57:50;;;;;;;78.65;70.65;;;13.80;99.90;;;;;;5066770;28;20033;-64
2024/01/30 03:00:16;;;;;;;80.47;72.30;;;13.90;99.90;;;;;;5066070;28;20079;-65
2024/01/30 03:02:42;;;;;;;88.22;79.35;;;13.90;99.90;;;;;;5062907;28;20041;-65
2024/01/30 03:05:08;;;;;;;85.13;76.72;;;13.10;99.90;;;;;;5047029;28;20041;-65
2024/01/30 03:07:34;;;;;;;82.72;74.72;;;13.20;99.90;;;;;;5054374;28;20048;-65
2024/01/30 03:10:00;;;;;;;83.03;74.70;;;13.80;99.90;;;;;;5065812;28;20493;-66
2024/01/30 03:12:26;;;;;;;71.07;59.10;;;12.80;99.90;;;;;;5066341;28;20087;-65
2024/01/30 03:14:51;;;;;;;79.43;71.03;;;13.60;99.90;;;;;;5065560;28;20469;-65
2024/01/30 03:17:17;;;;;;;79.65;71.43;;;14.20;99.90;;;;;;5066449;28;20469;-65
2024/01/30 03:19:42;;;;;;;76.85;68.97;;;12.90;99.90;;;;;;5065862;28;20082;-65
2024/01/30 03:22:08;;;;;;;78.28;70.43;;;14.30;99.90;;;;;;5066101;28;20076;-65
2024/01/30 03:24:33;;;;;;;76.40;69.00;;;13.90;99.90;;;;;;5062175;28;20040;-64
2024/01/30 03:26:59;;;;;;;71.45;62.17;;;12.90;99.90;;;;;;5054218;28;20048;-65
2024/01/30 03:29:25;;;;;;;83.85;75.70;;;13.00;99.90;;;;;;5065819;28;20495;-65
2024/01/30 03:31:50;;;;;;;86.75;78.15;;;13.70;99.90;;;;;;5066009;28;20063;-65
2024/01/30 03:34:16;;;;;;;88.50;79.78;;;13.60;99.90;;;;;;5064260;28;20173;-65
2024/01/30 03:36:42;;;;;;;84.40;76.13;;;12.80;99.90;;;;;;5048573;28;20099;-64
2024/01/30 03:39:07;;;;;;;70.47;62.92;;;13.80;99.90;;;;;;5065413;28;20045;-65
2024/01/30 03:41:33;;;;;;;85.28;76.75;;;12.90;99.90;;;;;;5065323;28;20060;-65
2024/01/30 03:43:59;;;;;;;84.10;75.57;;;13.50;99.90;;;;;;5065547;28;20068;-64
2024/01/30 03:46:24;;;;;;;68.57;61.42;;;12.90;99.90;;;;;;5062389;28;20032;-65
2024/01/30 03:48:50;;;;;;;82.78;74.07;;;13.50;99.90;;;;;;5065578;28;20037;-65
2024/01/30 03:51:16;;;;;;;70.45;60.28;;;13.60;99.90;;;;;;5065016;28;20123;-66
2024/01/30 03:53:42;;;;;;;78.72;70.68;;;13.90;99.90;;;;;;5047270;28;20086;-66
2024/01/30 03:56:08;;;;;;;62.65;56.10;;;13.10;99.90;;;;;;5047645;28;20512;-67
2024/01/30 03:58:34;;;;;;;77.80;69.82;;;14.10;99.90;;;;;;5030724;28;20517;-67
2024/01/30 04:00:59;;;;;;;81.45;72.97;;;14.10;99.90;;;;;;5065175;28;20045;-67
2024/01/30 04:03:25;;;;;;;81.15;72.68;;;13.10;99.90;;;;;;5066054;28;20056;-66
2024/01/30 04:05:54;;;;;;;81.47;73.15;;;13.30;99.90;;;;;;5065332;28;20037;-66
2024/01/30 04:08:19;;;;;;;72.38;64.53;;;14.30;99.90;;;;;;5065617;28;20040;-66
2024/01/30 04:10:46;;;;;;;69.20;62.03;;;13.20;99.90;;;;;;5058910;28;20048;-67
2024/01/30 04:13:12;;;;;;;72.18;64.70;;;13.40;99.90;;;;;;5045302;28;20045;-67
2024/01/30 04:15:38;;;;;;;75.93;68.53;;;14.40;98.80;;;;;;5058125;28;20048;-66
2024/01/30 04:18:04;;;;;;;72.25;65.03;;;13.80;88.50;;;;;;5064843;28;20040;-66
2024/01/30 04:20:30;;;;;;;76.10;68.75;;;14.40;8.60;;;;;;5064981;28;20032;-66
2024/01/30 04:22:56;;;;;;;75.07;67.63;;;14.20;28.70;;;;;;5057852;28;20041;-67
2024/01/30 04:25:21;;;;;;;79.63;72.05;;;14.10;65.20;;;;;;5064033;28;20089;-67
2024/01/30 04:27:47;;;;;;;74.22;66.78;;;14.40;1.00;;;;;;5064983;28;20033;-67
2024/01/30 04:30:13;;;;;;;75.03;67.40;;;13.60;1.00;;;;;;5064582;28;20123;-66
2024/01/30 04:32:39;;;;;;;73.38;65.60;;;14.50;1.00;;;;;;5064875;28;20044;-67
2024/01/30 04:35:04;;;;;;;73.90;66.50;;;14.00;1.00;;;;;;5057752;28;20094;-66
2024/01/30 04:37:30;;;;;;;74.53;66.63;;;14.40;1.00;;;;;;5044868;28;20103;-67
2024/01/30 04:39:56;;;;;;;69.88;62.08;;;14.50;1.00;;;;;;5046027;28;20118;-66
2024/01/30 04:42:22;;;;;;;72.78;65.28;;;13.50;1.00;;;;;;5065043;28;20045;-67
2024/01/30 04:44:47;;;;;;;72.55;64.95;;;13.60;99.90;;;;;;5065208;28;20517;-66
2024/01/30 04:47:13;;;;;;;73.95;66.07;;;14.10;99.90;;;;;;5063427;28;20060;-67
2024/01/30 04:49:39;;;;;;;56.78;50.58;;;14.70;99.90;;;;;;5064506;28;20048;-66
2024/01/30 04:52:06;;;;;;;58.10;51.33;;;14.10;99.90;;;;;;5064571;28;20041;-66
2024/01/30 04:54:31;;;;;;;72.13;64.47;;;14.40;99.90;;;;;;5064536;28;20120;-66
2024/01/30 04:56:57;;;;;;;72.28;64.68;;;13.50;99.90;;;;;;5066289;28;20123;-66
2024/01/30 04:59:22;;;;;;;72.75;65.40;;;13.50;99.90;;;;;;5068442;28;20077;-66
2024/01/30 05:01:48;;;;;;;68.97;61.63;;;13.60;99.90;;;;;;5067725;28;20520;-66
2024/01/30 05:04:14;;;;;;;72.03;64.72;;;14.60;99.90;;;;;;5068760;28;20425;-66
2024/01/30 05:06:39;;;;;;;72.63;65.28;;;13.60;99.90;;;;;;5068793;28;20112;-66
2024/01/30 05:09:05;;;;;;;75.28;67.95;;;14.60;99.90;;;;;;5068306;28;20052;-66
2024/01/30 05:11:31;;;;;;;76.72;69.15;;;14.60;99.90;;;;;;5056677;28;20544;-66
2024/01/30 05:13:56;;;;;;;77.88;70.35;;;14.30;99.90;;;;;;5069416;28;20090;-66
2024/01/30 05:16:22;;;;;;;75.35;67.95;;;13.60;99.90;;;;;;5051512;28;20763;-66
2024/01/30 05:18:48;;;;;;;66.18;58.08;;;13.60;99.90;;;;;;5068224;28;20072;-66
2024/01/30 05:21:13;;;;;;;63.42;56.53;;;14.60;99.90;;;;;;5068187;28;20107;-66
2024/01/30 05:23:40;;;;;;;75.90;68.38;;;14.50;45.40;;;;;;5062499;28;20140;-66
2024/01/30 05:26:05;;;;;;;72.75;65.20;;;14.50;23.70;;;;;;5048930;28;20480;-66
2024/01/30 05:28:31;;;;;;;72.18;64.57;;;13.60;3.80;;;;;;5048453;28;20493;-66
2024/01/30 05:30:57;;;;;;;72.30;64.65;;;14.00;1.00;;;;;;5065771;28;20051;-67
2024/01/30 05:33:22;;;;;;;72.13;64.65;;;13.70;12.20;;;;;;5052193;28;20048;-66
2024/01/30 05:35:48;;;;;;;69.93;62.67;;;13.50;1.00;;;;;;5063698;28;20045;-66
2024/01/30 05:38:15;;;;;;;71.78;64.10;;;13.60;1.00;;;;;;5047683;28;20049;-66
2024/01/30 05:40:41;;;;;;;70.57;62.55;;;14.50;1.00;;;;;;5058668;28;20451;-66
2024/01/30 05:43:07;;;;;;;71.15;61.80;;;13.70;1.00;;;;;;5068088;28;20040;-67
2024/01/30 05:45:34;;;;;;;73.07;65.70;;;14.50;99.90;;;;;;5051611;28;20049;-66
2024/01/30 05:48:01;;;;;;;70.38;62.95;;;13.60;1.00;;;;;;5044380;28;20040;-66
2024/01/30 05:50:26;;;;;;;71.05;63.72;;;14.50;1.00;;;;;;5068580;28;20703;-67
2024/01/30 05:52:53;;;;;;;68.60;61.35;;;14.10;99.90;;;;;;5068315;28;20045;-67
2024/01/30 05:55:18;;;;;;;69.75;62.65;;;13.80;1.00;;;;;;5068192;28;20454;-66
2024/01/30 05:57:44;;;;;;;62.17;55.47;;;13.70;99.90;;;;;;5067595;28;20155;-66
2024/01/30 06:00:10;;;;;;;71.25;63.67;;;13.60;1.00;;;;;;5067649;28;20500;-67
2024/01/30 06:02:36;;;;;;;72.03;64.43;;;14.50;99.90;;;;;;5067851;28;20067;-66
2024/01/30 06:05:01;;;;;;;70.75;63.17;;;13.90;1.00;;;;;;5062471;28;20040;-66
2024/01/30 06:07:27;;;;;;;69.88;62.50;;;14.50;99.90;;;;;;5066518;28;20565;-66
2024/01/30 06:09:53;;;;;;;62.97;51.90;;;13.90;99.90;;;;;;5067667;28;20044;-65
2024/01/30 06:12:18;;;;;;;71.63;64.05;;;14.40;99.90;;;;;;5049905;28;20118;-65
2024/01/30 06:14:44;;;;;;;71.22;63.40;;;13.50;99.90;;;;;;5067475;28;20427;-65
2024/01/30 06:17:11;;;;;;;69.15;61.65;;;14.60;99.90;;;;;;5066975;28;20079;-65
2024/01/30 06:19:38;;;;;;;70.18;62.65;;;14.70;99.90;;;;;;5057517;28;20170;-65
2024/01/30 06:22:04;;;;;;;69.32;61.83;;;13.60;99.90;;;;;;5049500;28;20040;-65
2024/01/30 06:24:29;;;;;;;66.45;59.22;;;14.50;99.90;;;;;;5067748;28;20509;-66
2024/01/30 06:26:55;;;;;;;69.45;62.25;;;14.50;99.90;;;;;;5066978;28;20533;-65
2024/01/30 06:29:21;;;;;;;65.28;58.45;;;14.50;99.90;;;;;;5049093;28;20464;-65
2024/01/30 06:31:46;;;;;;;62.63;54.85;;;14.00;99.90;;;;;;5033475;28;20059;-65
2024/01/30 06:34:12;;;;;;;68.65;61.45;;;14.10;99.90;;;;;;5059945;28;20486;-65
2024/01/30 06:36:37;;;;;;;56.85;49.38;;;14.10;99.90;;;;;;5063361;28;20068;-65
2024/01/30 06:39:04;;;;;;;68.05;60.88;;;14.00;99.90;;;;;;5057380;28;20833;-65
2024/01/30 06:41:30;;;;;;;63.75;56.95;;;14.20;99.90;;;;;;5049229;28;20055;-66
2024/01/30 06:43:56;;;;;;;69.80;60.72;;;15.40;99.90;;;;;;5052175;28;20457;-66
2024/01/30 06:46:21;;;;;;;64.68;57.25;;;14.00;99.90;;;;;;5036606;28;20390;-65
2024/01/30 06:48:47;;;;;;;68.65;61.42;;;13.70;99.90;;;;;;5066137;28;20097;-66
2024/01/30 06:51:13;;;;;;;68.20;60.88;;;14.60;99.90;;;;;;5065271;28;20118;-65
2024/01/30 06:53:38;;;;;;;72.38;64.55;;;13.90;99.90;;;;;;5066675;28;20044;-65
2024/01/30 06:56:04;;;;;;;73.43;63.00;;;14.60;99.90;;;;;;5063970;28;20083;-65
2024/01/30 06:58:30;;;;;;;69.45;61.83;;;13.90;99.90;;;;;;5053459;28;20037;-65
2024/01/30 07:00:56;;;;;;;68.78;61.47;;;14.80;99.90;;;;;;5028463;28;20110;-65
2024/01/30 07:03:22;;;;;;;69.85;61.83;;;13.60;99.90;;;;;;5049436;28;20044;-65
2024/01/30 07:05:48;;;;;;;67.95;59.60;;;13.90;99.90;;;;;;5066668;28;20053;-65
2024/01/30 07:08:17;;;;;;;67.82;61.05;;;13.70;99.90;;;;;;5049669;28;20045;-65
2024/01/30 07:10:43;;;;;;;70.75;63.63;;;14.40;99.90;;;;;;5046660;28;20800;-65
2024/01/30 07:13:09;;;;;;;69.78;62.40;;;14.60;99.90;;;;;;5064851;28;20055;-66
2024/01/30 07:15:36;;;;;;;73.57;66.50;;;14.40;99.90;;;;;;5043189;28;20056;-65
2024/01/30 07:18:02;;;;;;;73.63;65.70;;;14.60;99.90;;;;;;5058611;28;20040;-65
2024/01/30 07:20:30;;;;;;;69.15;61.83;;;13.80;99.90;;;;;;5061099;28;20114;-66
2024/01/30 07:22:56;;;;;;;68.55;61.10;;;14.90;99.90;;;;;;5061954;28;21115;-66
2024/01/30 07:25:26;;;;;;;65.78;58.95;;;13.80;94.20;;;;;;5062588;28;20064;-67
2024/01/30 07:27:54;;;;;;;70.80;63.40;;;13.60;56.40;;;;;;5046927;28;20418;-66
2024/01/30 07:30:21;;;;;;;70.50;63.13;;;14.10;68.30;;;;;;5063463;28;20457;-66
2024/01/30 07:32:46;;;;;;;65.18;58.30;;;13.50;49.60;;;;;;5061708;28;20417;-66
2024/01/30 07:35:13;;;;;;;63.92;57.08;;;13.70;91.90;;;;;;5046668;28;20116;-66
2024/01/30 07:37:39;;;;;;;46.50;41.58;;;13.80;47.50;;;;;;5065166;28;20165;-66
2024/01/30 07:40:06;;;;;;;52.70;47.22;;;13.70;25.70;;;;;;5062847;28;20489;-66
2024/01/30 07:42:32;;;;;;;49.95;45.00;;;13.70;81.90;;;;;;5047175;28;20090;-67
2024/01/30 07:44:57;;;;;;;62.33;55.42;;;14.50;14.50;;;;;;5067946;28;20040;-67
2024/01/30 07:47:23;;;;;;;62.70;56.17;;;14.00;16.60;;;;;;5065260;28;20102;-66
2024/01/30 07:49:49;;;;;;;65.55;58.78;;;14.10;5.30;;;;;;5041379;28;20849;-66
2024/01/30 07:52:14;;;;;;;66.10;59.30;;;14.50;1.00;;;;;;5037324;28;20138;-66
2024/01/30 07:54:52;;;;;;;62.60;55.88;;;14.60;91.30;;;;;;5064383;28;20080;-67
2024/01/30 07:57:18;;;;;;;47.58;41.40;;;13.80;99.90;;;;;;5047717;28;20056;-67
2024/01/30 07:59:44;;;;;;;63.15;56.72;;;13.80;99.90;;;;;;5061104;28;20036;-67
2024/01/30 08:02:11;;;;;;;60.42;54.03;;;14.00;92.70;;;;;;5062682;28;20143;-67
2024/01/30 08:04:37;;;;;;;65.72;58.72;;;13.90;99.90;;;;;;5062417;28;20036;-66
2024/01/30 08:07:03;;;;;;;66.90;60.00;;;14.80;99.90;;;;;;5045767;28;20029;-67
2024/01/30 08:09:28;;;;;;;66.40;59.38;;;14.70;91.30;;;;;;5066152;28;20040;-66
2024/01/30 08:11:54;;;;;;;66.40;57.25;;;14.80;99.90;;;;;;5062792;28;20042;-67
2024/01/30 08:14:20;;;;;;;67.60;60.25;;;14.40;99.90;;;;;;5065059;28;20059;-67
2024/01/30 08:16:45;;;;;;;66.57;56.55;;;13.90;99.90;;;;;;5077232;28;20125;-67
2024/01/30 08:19:11;;;;;;;64.97;56.65;;;14.30;99.90;;;;;;5060455;28;20036;-67
2024/01/30 08:21:36;;;;;;;74.47;65.03;;;15.70;99.90;;;;;;5063069;28;20505;-67
2024/01/30 08:24:04;;;;;;;67.20;59.83;;;15.20;99.90;;;;;;5062628;28;20125;-67
2024/01/30 08:26:30;;;;;;;69.28;61.92;;;14.00;99.90;;;;;;5045333;28;20055;-66
2024/01/30 08:28:56;;;;;;;64.50;57.47;;;14.80;99.90;;;;;;5062988;28;20052;-67
2024/01/30 08:31:21;;;;;;;54.30;46.72;;;14.10;99.90;;;;;;5040400;28;20384;-65
2024/01/30 08:33:47;;;;;;;66.82;59.53;;;14.10;99.90;;;;;;5060954;28;20045;-65
2024/01/30 08:36:13;;;;;;;62.97;55.35;;;15.50;99.90;;;;;;5061858;28;20032;-66
2024/01/30 08:38:38;;;;;;;61.35;54.78;;;14.30;99.90;;;;;;5062424;28;20147;-65
2024/01/30 08:41:04;;;;;;;68.65;61.13;;;14.80;99.90;;;;;;5044064;28;20045;-67
2024/01/30 08:43:30;;;;;;;74.22;62.97;;;15.30;99.90;;;;;;5059349;28;20124;-67
2024/01/30 08:46:01;;;;;;;67.10;59.67;;;14.90;99.90;;;;;;5064778;28;20677;-67
2024/01/30 08:48:27;;;;;;;67.45;60.00;;;15.40;99.90;;;;;;5062660;28;20036;-67
2024/01/30 08:50:53;;;;;;;68.57;61.50;;;15.30;99.90;;;;;;5062518;28;20717;-67
2024/01/30 08:53:19;;;;;;;70.47;63.08;;;14.50;99.90;;;;;;5060727;28;20793;-67
2024/01/30 08:55:45;;;;;;;66.70;59.58;;;15.40;99.90;;;;;;5042259;28;20044;-67
2024/01/30 08:58:11;;;;;;;65.82;56.80;;;14.80;99.90;;;;;;5060297;28;20135;-67
2024/01/30 09:00:36;;;;;;;67.68;60.22;;;15.10;99.90;;;;;;5062040;28;20128;-67
2024/01/30 09:03:03;;;;;;;72.53;61.80;;;14.60;99.90;;;;;;5060387;28;20082;-67
2024/01/30 09:05:29;;;;;;;63.03;56.22;;;14.50;99.90;;;;;;5056436;28;20036;-67
2024/01/30 09:07:54;;;;;;;65.50;56.88;;;14.60;99.90;;;;;;5061761;28;20687;-67
2024/01/30 09:10:20;;;;;;;66.85;59.70;;;15.40;99.90;;;;;;5042301;28;20040;-67
2024/01/30 09:12:46;;;;;;;67.70;60.35;;;14.50;99.90;;;;;;5061001;28;20055;-67
2024/01/30 09:15:12;;;;;;;68.13;59.55;;;14.50;99.90;;;;;;5059075;28;20040;-67
2024/01/30 09:17:37;;;;;;;70.55;62.08;;;15.50;99.90;;;;;;5063392;28;20045;-67
2024/01/30 09:20:03;;;;;;;70.10;62.55;;;15.40;99.90;;;;;;5059843;28;20402;-67
2024/01/30 09:22:29;;;;;;;68.97;61.55;;;14.90;99.90;;;;;;5059767;28;20044;-67
2024/01/30 09:24:55;;;;;;;72.25;60.92;;;14.80;99.90;;;;;;5063645;28;20680;-67
2024/01/30 09:27:20;;;;;;;64.95;57.78;;;15.50;99.90;;;;;;5061185;28;20157;-66
2024/01/30 09:29:46;;;;;;;67.35;60.17;;;15.50;99.90;;;;;;5058903;28;20494;-67
2024/01/30 09:32:11;;;;;;;65.03;57.40;;;14.70;99.90;;;;;;5056691;28;20504;-67
2024/01/30 09:34:37;;;;;;;68.43;55.90;;;14.80;99.90;;;;;;5061204;28;20067;-67
2024/01/30 09:37:02;;;;;;;66.95;57.28;;;15.70;99.90;;;;;;5061379;28;20056;-67
2024/01/30 09:39:28;;;;;;;76.60;60.65;;;15.50;99.90;;;;;;5043201;28;20778;-67
2024/01/30 09:42:28;;;;;;;68.07;60.63;;;15.60;99.90;;;;;;5062629;28;20043;-67
2024/01/30 09:44:54;;;;;;;73.53;59.67;;;14.50;99.90;;;;;;5063558;28;20124;-67
2024/01/30 09:47:21;;;;;;;72.03;58.85;;;15.50;99.90;;;;;;5064943;28;20414;-67
2024/01/30 09:49:47;;;;;;;71.55;56.05;;;15.20;48.30;;;;;;5046884;28;20040;-67
2024/01/30 09:52:13;;;;;;;69.32;57.88;;;14.20;24.20;;;;;;5048273;28;20958;-67
2024/01/30 09:54:40;;;;;;;70.75;55.17;;;14.40;91.50;;;;;;5065638;28;20044;-67
2024/01/30 09:57:05;;;;;;;61.63;51.38;;;14.90;99.90;;;;;;5065320;28;20079;-67
2024/01/30 09:59:32;;;;;;;71.68;50.58;;;15.20;99.90;;;;;;5046540;28;20481;-64
2024/01/30 10:01:58;;;;;;;70.88;51.72;;;15.10;1.00;;;;;;5061170;28;20036;-67
2024/01/30 10:04:23;;;;;;;70.75;51.38;;;15.30;99.90;;;;;;5063934;28;20730;-67
2024/01/30 10:06:50;;;;;;;75.85;56.17;;;15.00;99.90;;;;;;5046547;28;20127;-67
2024/01/30 10:09:16;;;;;;;78.45;52.85;;;15.10;99.90;;;;;;5045196;28;20045;-67
2024/01/30 10:11:42;;;;;;;71.93;50.38;;;15.00;99.90;;;;;;5062830;28;20044;-67
2024/01/30 10:14:07;;;;;;;77.72;50.95;;;14.60;99.90;;;;;;5063150;28;20036;-67
2024/01/30 10:16:34;;;;;;;67.10;51.63;;;15.70;99.90;;;;;;5047510;28;20068;-67
2024/01/30 10:19:00;;;;;;;76.40;53.20;;;14.50;99.90;;;;;;5045909;28;20044;-67
2024/01/30 10:21:25;;;;;;;61.50;50.47;;;14.90;99.90;;;;;;5044110;28;20040;-67
2024/01/30 10:23:51;;;;;;;74.63;49.95;;;14.50;99.90;;;;;;5064952;28;20066;-67
2024/01/30 10:26:19;;;;;;;77.53;50.10;;;15.30;99.90;;;;;;5065707;28;20047;-67
2024/01/30 10:28:45;;;;;;;63.85;46.35;;;14.10;99.90;;;;;;5047508;28;20052;-67
2024/01/30 10:31:11;;;;;;;66.13;46.78;;;14.60;99.90;;;;;;5064295;28;20090;-67
2024/01/30 10:33:36;;;;;;;64.10;50.33;;;14.60;99.90;;;;;;5064630;28;20455;-67
2024/01/30 10:36:04;;;;;;;67.75;47.85;;;15.30;1.00;;;;;;5046198;28;20048;-67
2024/01/30 10:38:31;;;;;;;73.47;47.97;;;14.40;1.00;;;;;;5045223;28;20541;-67
2024/01/30 10:40:58;;;;;;;72.80;48.78;;;14.80;1.00;;;;;;5045524;28;20052;-67
2024/01/30 10:43:32;;;;;;;61.00;50.95;;;15.20;27.80;;;;;;5044939;28;20068;-67
2024/01/30 10:46:03;;;;;;;59.13;47.03;;;14.00;30.30;;;;;;5063908;28;20422;-67
2024/01/30 10:48:32;;;;;;;59.55;46.92;;;14.40;19.60;;;;;;5047883;28;20040;-67
2024/01/30 10:51:00;;;;;;;62.30;46.38;;;14.60;5.90;;;;;;5045809;28;20056;-67
2024/01/30 10:53:27;;;;;;;58.35;49.08;;;13.90;99.90;;;;;;5059324;28;20517;-67
2024/01/30 10:55:55;;;;;;;58.15;44.47;;;14.10;99.90;;;;;;5044592;28;20169;-67
2024/01/30 10:58:21;;;;;;;73.63;48.85;;;14.60;99.90;;;;;;5063607;28;20055;-67
2024/01/30 11:00:48;;;;;;;62.47;49.88;;;13.90;99.90;;;;;;5063919;28;20514;-66
2024/01/30 11:03:14;;;;;;;57.17;48.30;;;15.30;99.90;;;;;;5045146;28;20039;-67
2024/01/30 11:05:41;;;;;;;64.90;49.30;;;14.70;1.00;;;;;;5064156;28;20387;-67
2024/01/30 11:08:23;;;;;;;61.22;48.25;;;14.20;1.00;;;;;;5063030;28;20051;-67
2024/01/30 11:10:49;;;;;;;59.08;47.05;;;15.30;1.00;;;;;;5062233;28;20044;-67
2024/01/30 11:13:15;;;;;;;55.85;49.78;;;14.10;1.00;;;;;;5063779;28;20047;-67
2024/01/30 11:15:40;;;;;;;60.63;45.42;;;13.90;1.00;;;;;;5061148;28;20044;-67
2024/01/30 11:18:06;;;;;;;57.03;44.42;;;14.50;1.00;;;;;;5065726;28;20129;-67
2024/01/30 11:20:32;;;;;;;57.38;45.92;;;14.20;1.00;;;;;;5060781;28;20139;-67
2024/01/30 11:22:59;;;;;;;59.45;44.63;;;14.10;20.70;;;;;;5042134;28;20090;-67
2024/01/30 11:25:25;;;;;;;57.45;37.08;;;13.50;28.80;;;;;;5061849;28;20043;-67
2024/01/30 11:27:53;;;;;;;60.20;45.92;;;14.70;5.50;;;;;;5062497;28;20067;-67
2024/01/30 11:30:28;;;;;;;56.35;44.90;;;14.80;98.60;;;;;;5062633;28;20123;-67
2024/01/30 11:33:08;;;;;;;66.10;47.05;;;14.20;99.90;;;;;;5061748;28;20699;-67
2024/01/30 11:35:40;;;;;;;56.20;44.42;;;15.20;99.90;;;;;;5061537;28;20052;-67
2024/01/30 11:38:14;;;;;;;50.95;44.90;;;13.80;1.00;;;;;;5045212;28;20444;-67
2024/01/30 11:40:40;;;;;;;61.72;43.67;;;14.00;1.00;;;;;;5062703;28;20473;-67
2024/01/30 11:43:07;;;;;;;54.58;44.90;;;14.80;1.00;;;;;;5062057;28;20051;-67
2024/01/30 11:45:34;;;;;;;56.50;45.30;;;13.90;13.90;;;;;;5064034;28;20051;-67
2024/01/30 11:48:03;;;;;;;57.60;46.28;;;13.80;24.30;;;;;;5060459;28;20522;-67
2024/01/30 11:50:32;;;;;;;46.90;41.38;;;14.90;22.80;;;;;;5060983;28;20280;-67
2024/01/30 11:53:01;;;;;;;52.88;45.05;;;14.80;65.20;;;;;;5041380;28;20058;-67
2024/01/30 11:55:27;;;;;;;54.60;47.47;;;14.10;99.90;;;;;;5044014;28;20048;-67
2024/01/30 11:57:59;;;;;;;54.03;45.13;;;14.40;99.90;;;;;;5060006;28;20114;-67
2024/01/30 12:00:25;;;;;;;58.13;45.08;;;14.30;99.90;;;;;;5062503;28;20055;-67
2024/01/30 12:02:55;;;;;;;50.72;44.63;;;14.40;1.00;;;;;;5062156;28;20040;-67
2024/01/30 12:05:22;;;;;;;46.25;41.20;;;15.00;1.00;;;;;;5062528;28;20036;-67
2024/01/30 12:07:47;;;;;;;50.40;43.33;;;15.00;1.00;;;;;;5062253;28;20048;-67
2024/01/30 12:10:14;;;;;;;48.15;43.13;;;14.90;1.00;;;;;;5064636;28;20048;-67
2024/01/30 12:12:41;;;;;;;51.22;45.53;;;15.00;1.00;;;;;;5060858;28;20391;-67
2024/01/30 12:15:07;;;;;;;50.03;44.75;;;14.00;99.30;;;;;;5062023;28;20094;-67
2024/01/30 12:17:36;;;;;;;51.45;45.95;;;14.30;99.90;;;;;;5062444;28;20068;-67
2024/01/30 12:20:06;;;;;;;55.42;49.50;;;15.10;1.00;;;;;;5061607;28;20044;-67
2024/01/30 12:22:40;;;;;;;53.20;48.25;;;14.10;1.00;;;;;;5060097;28;20640;-67